createdAt,value
2023-04-10T00:00:58.017Z,32.17
2023-04-10T00:03:30.894Z,34.88
2023-04-10T00:06:01.525Z,27.88
2023-04-10T00:08:34.989Z,31.88
2023-04-10T00:11:08.285Z,29.55
2023-04-10T00:13:40.231Z,37.35
2023-04-10T00:16:11.345Z,41.05
2023-04-10T00:18:48.018Z,29.75
2023-04-10T00:21:18.319Z,29.90
2023-04-10T00:23:50.074Z,35.65
2023-04-10T00:26:27.313Z,34.53
2023-04-10T00:29:00.002Z,32.85
2023-04-10T00:31:31.037Z,40.08
2023-04-10T00:34:03.423Z,32.58
2023-04-10T00:36:34.422Z,36.90
2023-04-10T00:39:05.192Z,31.63
2023-04-10T00:41:38.942Z,38.85
2023-04-10T00:46:41.663Z,38.45
2023-04-10T00:49:13.140Z,46.63
2023-04-10T00:51:44.152Z,32.65
2023-04-10T00:54:20.351Z,40.35
2023-04-10T00:56:57.668Z,39.00
2023-04-10T00:59:28.440Z,36.10
2023-04-10T01:01:59.512Z,34.78
2023-04-10T01:04:32.691Z,40.72
2023-04-10T01:07:11.840Z,39.42
2023-04-10T01:09:47.709Z,35.83
2023-04-10T01:12:41.112Z,38.03
2023-04-10T01:15:16.400Z,37.60
2023-04-10T01:17:53.626Z,39.85
2023-04-10T01:20:26.770Z,35.80
2023-04-10T01:23:21.176Z,39.30
2023-04-10T01:25:58.333Z,39.17
2023-04-10T01:28:51.148Z,37.33
2023-04-10T01:31:30.868Z,40.80
2023-04-10T01:34:08.283Z,37.35
2023-04-10T01:36:44.109Z,44.88
2023-04-10T01:39:15.538Z,37.00
2023-04-10T01:41:48.655Z,38.40
2023-04-10T01:44:21.682Z,40.53
2023-04-10T01:46:56.586Z,37.40
2023-04-10T01:49:30.917Z,40.47
2023-04-10T01:52:10.377Z,44.10
2023-04-10T01:54:41.794Z,44.80
2023-04-10T01:57:15.366Z,42.90
2023-04-10T01:59:58.569Z,40.05
2023-04-10T02:02:34.911Z,45.25
2023-04-10T02:05:05.679Z,44.58
2023-04-10T02:07:43.177Z,46.45
2023-04-10T02:10:17.249Z,37.20
2023-04-10T02:12:54.210Z,45.40
2023-04-10T02:15:30.039Z,43.75
2023-04-10T02:18:07.105Z,43.20
2023-04-10T02:20:38.704Z,40.83
2023-04-10T02:23:09.795Z,48.67
2023-04-10T02:25:40.547Z,44.38
2023-04-10T02:28:12.766Z,37.55
2023-04-10T02:30:44.223Z,43.55
2023-04-10T02:33:19.445Z,47.25
2023-04-10T02:35:50.500Z,43.33
2023-04-10T02:38:21.945Z,42.20
2023-04-10T02:40:53.637Z,47.08
2023-04-10T02:43:24.040Z,43.85
2023-04-10T02:45:55.220Z,46.70
2023-04-10T02:48:34.393Z,42.25
2023-04-10T02:51:07.517Z,46.88
2023-04-10T02:53:37.969Z,42.58
2023-04-10T02:56:12.118Z,40.72
2023-04-10T02:58:46.713Z,44.00
2023-04-10T03:01:18.638Z,39.65
2023-04-10T03:03:54.744Z,36.85
2023-04-10T03:06:32.114Z,45.03
2023-04-10T03:09:02.389Z,45.88
2023-04-10T03:11:32.855Z,52.22
2023-04-10T03:14:03.977Z,39.75
2023-04-10T03:16:34.576Z,54.30
2023-04-10T03:19:10.292Z,45.77
2023-04-10T03:21:41.071Z,41.65
2023-04-10T03:24:11.805Z,52.45
2023-04-10T03:26:42.435Z,38.95
2023-04-10T03:29:12.954Z,37.67
2023-04-10T03:31:44.503Z,39.60
2023-04-10T03:34:17.612Z,39.97
2023-04-10T03:36:48.340Z,42.45
2023-04-10T03:39:19.222Z,46.67
2023-04-10T03:41:49.664Z,42.13
2023-04-10T03:44:21.680Z,41.13
2023-04-10T03:46:52.287Z,35.63
2023-04-10T03:49:26.282Z,44.67
2023-04-10T03:52:06.013Z,46.17
2023-04-10T03:54:36.674Z,41.33
2023-04-10T03:57:07.743Z,42.10
2023-04-10T03:59:39.063Z,44.40
2023-04-10T04:02:14.864Z,46.75
2023-04-10T04:04:50.506Z,48.87
2023-04-10T04:07:41.147Z,44.22
2023-04-10T04:10:38.131Z,45.08
2023-04-10T04:27:57.888Z,42.00
2023-04-10T04:31:01.411Z,38.13
2023-04-10T04:33:51.374Z,44.75
2023-04-10T04:36:47.956Z,50.20
2023-04-10T04:39:21.379Z,43.53
2023-04-10T04:42:30.019Z,43.17
2023-04-10T04:45:10.656Z,50.58
2023-04-10T04:48:11.291Z,45.90
2023-04-10T04:51:02.104Z,47.65
2023-04-10T04:53:59.587Z,45.70
2023-04-10T04:57:10.132Z,48.00
2023-04-10T04:59:59.201Z,49.88
2023-04-10T05:02:50.856Z,51.33
2023-04-10T05:05:44.162Z,46.03
2023-04-10T05:08:31.488Z,48.38
2023-04-10T05:11:23.404Z,41.78
2023-04-10T05:14:02.071Z,41.85
2023-04-10T05:16:47.758Z,46.70
2023-04-10T05:19:35.958Z,39.33
2023-04-10T05:22:18.676Z,43.92
2023-04-10T05:25:27.314Z,43.70
2023-04-10T05:28:06.224Z,42.75
2023-04-10T05:30:56.018Z,49.78
2023-04-10T05:33:49.125Z,55.63
2023-04-10T05:36:59.012Z,39.60
2023-04-10T05:39:48.368Z,49.75
2023-04-10T05:42:30.872Z,45.15
2023-04-10T05:45:15.747Z,38.65
2023-04-10T05:47:58.322Z,33.03
2023-04-10T05:50:39.031Z,44.47
2023-04-10T05:53:25.696Z,44.13
2023-04-10T05:56:14.339Z,42.40
2023-04-10T05:59:07.581Z,46.65
2023-04-10T06:02:02.049Z,44.38
2023-04-10T06:04:35.076Z,44.90
2023-04-10T06:07:05.701Z,51.05
2023-04-10T06:09:38.805Z,40.95
2023-04-10T06:12:11.306Z,42.80
2023-04-10T06:14:43.606Z,50.28
2023-04-10T06:17:15.186Z,48.50
2023-04-10T06:19:45.366Z,52.75
2023-04-10T06:22:15.613Z,40.17
2023-04-10T06:24:48.449Z,39.95
2023-04-10T06:27:18.964Z,41.40
2023-04-10T06:29:50.148Z,45.53
2023-04-10T06:32:24.361Z,41.00
2023-04-10T06:34:54.613Z,43.17
2023-04-10T06:37:31.561Z,40.78
2023-04-10T06:40:12.245Z,37.47
2023-04-10T06:42:42.449Z,39.28
2023-04-10T06:45:18.669Z,50.45
2023-04-10T06:47:49.016Z,37.67
2023-04-10T06:50:19.228Z,37.53
2023-04-10T06:52:49.619Z,38.40
2023-04-10T06:55:22.622Z,33.28
2023-04-10T06:57:53.077Z,42.37
2023-04-10T07:00:24.038Z,35.97
2023-04-10T07:02:54.524Z,125.90
2023-04-10T07:05:25.375Z,41.30
2023-04-10T07:07:55.925Z,31.77
2023-04-10T07:10:28.806Z,32.40
2023-04-10T07:12:59.562Z,32.88
2023-04-10T07:15:30.052Z,39.40
2023-04-10T07:18:00.295Z,33.88
2023-04-10T07:20:30.503Z,38.58
2023-04-10T07:23:00.886Z,35.65
2023-04-10T07:25:33.898Z,31.10
2023-04-10T07:28:04.307Z,29.93
2023-04-10T07:30:34.798Z,30.85
2023-04-10T07:33:05.210Z,30.33
2023-04-10T07:35:37.185Z,27.98
2023-04-10T07:38:07.412Z,26.35
2023-04-10T07:40:40.196Z,25.35
2023-04-10T07:43:10.371Z,27.50
2023-04-10T07:45:40.918Z,25.92
2023-04-10T07:48:11.453Z,29.50
2023-04-10T07:50:41.738Z,25.38
2023-04-10T07:53:11.986Z,27.90
2023-04-10T07:55:48.950Z,33.80
2023-04-10T07:58:19.242Z,24.27
2023-04-10T08:00:49.933Z,31.15
2023-04-10T08:03:20.268Z,27.50
2023-04-10T08:05:50.932Z,39.95
2023-04-10T08:08:21.123Z,28.52
2023-04-10T08:10:53.949Z,44.13
2023-04-10T08:13:24.242Z,27.17
2023-04-10T08:15:54.556Z,23.77
2023-04-10T08:18:24.770Z,26.50
2023-04-10T08:20:54.914Z,22.10
2023-04-10T08:23:25.117Z,26.60
2023-04-10T08:25:58.010Z,20.27
2023-04-10T08:28:28.242Z,22.27
2023-04-10T08:30:58.910Z,23.75
2023-04-10T08:33:29.100Z,23.65
2023-04-10T08:35:59.362Z,24.52
2023-04-10T08:38:29.540Z,26.85
2023-04-10T08:41:02.401Z,25.98
2023-04-10T08:43:34.839Z,25.80
2023-04-10T08:46:05.559Z,21.70
2023-04-10T08:48:42.258Z,22.20
2023-04-10T08:51:20.049Z,24.02
2023-04-10T08:53:55.006Z,23.58
2023-04-10T08:56:28.416Z,43.72
2023-04-10T08:58:58.693Z,25.83
2023-04-10T09:01:29.038Z,17.95
2023-04-10T09:03:59.941Z,21.25
2023-04-10T09:06:31.898Z,16.38
2023-04-10T09:09:02.932Z,20.77
2023-04-10T09:12:04.414Z,19.05
2023-04-10T09:14:36.314Z,25.42
2023-04-10T09:17:19.008Z,17.95
2023-04-10T09:19:50.767Z,29.33
2023-04-10T09:22:21.568Z,16.30
2023-04-10T09:24:52.207Z,17.88
2023-04-10T09:27:35.813Z,16.27
2023-04-10T09:30:08.690Z,19.48
2023-04-10T09:32:41.737Z,15.73
2023-04-10T09:35:14.314Z,16.05
2023-04-10T09:37:46.383Z,20.15
2023-04-10T09:40:27.844Z,14.90
2023-04-10T09:43:01.010Z,19.42
2023-04-10T09:45:50.181Z,15.48
2023-04-10T09:48:21.199Z,22.23
2023-04-10T09:50:51.671Z,20.60
2023-04-10T09:53:23.625Z,20.42
2023-04-10T09:55:54.284Z,21.35
2023-04-10T09:58:28.569Z,16.15
2023-04-10T10:00:59.383Z,17.42
2023-04-10T10:03:30.054Z,16.20
2023-04-10T10:06:00.416Z,14.18
2023-04-10T10:08:31.221Z,13.68
2023-04-10T10:11:06.447Z,13.23
2023-04-10T10:13:45.935Z,14.95
2023-04-10T10:16:20.736Z,12.77
2023-04-10T10:18:58.297Z,10.60
2023-04-10T10:21:34.168Z,13.40
2023-04-10T10:24:05.715Z,8.57
2023-04-10T10:26:37.496Z,10.30
2023-04-10T10:29:14.288Z,11.18
2023-04-10T10:31:46.355Z,11.70
2023-04-10T10:34:19.165Z,10.90
2023-04-10T10:36:50.732Z,10.40
2023-04-10T10:39:32.476Z,13.55
2023-04-10T10:42:09.699Z,12.95
2023-04-10T10:44:50.752Z,14.07
2023-04-10T10:47:24.883Z,12.52
2023-04-10T10:49:56.694Z,13.43
2023-04-10T10:52:42.817Z,10.85
2023-04-10T10:55:39.867Z,13.30
2023-04-10T10:58:12.919Z,12.27
2023-04-10T11:01:12.815Z,12.95
2023-04-10T11:03:44.944Z,12.60
2023-04-10T11:06:20.181Z,12.80
2023-04-10T11:09:03.043Z,12.00
2023-04-10T11:12:01.104Z,14.85
2023-04-10T11:14:34.879Z,16.55
2023-04-10T11:17:24.392Z,13.82
2023-04-10T11:20:08.573Z,14.48
2023-04-10T11:23:34.301Z,14.82
2023-04-10T11:26:16.133Z,14.10
2023-04-10T11:28:46.493Z,12.80
2023-04-10T11:31:22.482Z,13.40
2023-04-10T11:34:06.284Z,19.15
2023-04-10T11:36:38.687Z,17.27
2023-04-10T11:39:14.006Z,15.68
2023-04-10T11:41:46.164Z,15.15
2023-04-10T11:44:21.246Z,14.45
2023-04-10T11:46:52.254Z,13.52
2023-04-10T11:49:26.574Z,14.32
2023-04-10T11:51:57.137Z,15.68
2023-04-10T11:54:28.839Z,14.48
2023-04-10T11:57:02.386Z,16.00
2023-04-10T12:02:10.770Z,15.18
2023-04-10T12:04:44.766Z,15.43
2023-04-10T12:07:15.218Z,14.82
2023-04-10T12:09:45.806Z,16.58
2023-04-10T12:12:15.933Z,18.05
2023-04-10T12:14:46.936Z,16.05
2023-04-10T12:17:17.709Z,16.25
2023-04-10T12:19:51.081Z,17.50
2023-04-10T12:22:21.887Z,18.52
2023-04-10T12:24:53.733Z,17.67
2023-04-10T12:27:25.744Z,17.58
2023-04-10T12:29:57.623Z,38.75
2023-04-10T12:32:28.916Z,18.55
2023-04-10T12:35:02.610Z,20.52
2023-04-10T12:40:18.547Z,18.23
2023-04-10T12:42:49.576Z,15.07
2023-04-10T12:45:21.007Z,18.08
2023-04-10T12:47:53.881Z,16.92
2023-04-10T12:50:27.543Z,16.98
2023-04-10T12:55:36.998Z,15.40
2023-04-10T12:58:20.955Z,17.85
2023-04-10T13:00:52.377Z,20.00
2023-04-10T13:03:22.857Z,16.08
2023-04-10T13:05:56.540Z,17.25
2023-04-10T13:11:03.295Z,19.02
2023-04-10T13:13:34.417Z,15.48
2023-04-10T13:16:04.780Z,15.80
2023-04-10T13:18:37.144Z,18.25
2023-04-10T13:21:11.547Z,17.73
2023-04-10T13:23:42.718Z,19.23
2023-04-10T13:26:13.195Z,17.98
2023-04-10T13:28:43.392Z,36.35
2023-04-10T13:31:16.115Z,14.65
2023-04-10T13:33:48.321Z,15.83
2023-04-10T13:36:21.202Z,15.45
2023-04-10T13:38:51.532Z,16.13
2023-04-10T13:41:21.925Z,14.95
2023-04-10T13:43:52.166Z,15.55
2023-04-10T13:46:22.494Z,19.48
2023-04-10T13:48:52.680Z,19.95
2023-04-10T13:51:25.848Z,15.02
2023-04-10T13:53:55.990Z,15.35
2023-04-10T13:56:26.226Z,16.48
2023-04-10T13:58:56.668Z,15.40
2023-04-10T14:01:27.355Z,14.90
2023-04-10T14:03:57.838Z,13.95
2023-04-10T14:06:32.019Z,18.10
2023-04-10T14:09:02.426Z,18.33
2023-04-10T14:11:32.689Z,18.00
2023-04-10T14:14:02.895Z,18.20
2023-04-10T14:16:33.241Z,15.70
2023-04-10T14:19:03.620Z,15.60
2023-04-10T14:21:37.551Z,16.88
2023-04-10T14:24:07.812Z,17.10
2023-04-10T14:26:38.004Z,16.60
2023-04-10T14:29:09.280Z,15.48
2023-04-10T14:31:50.463Z,14.50
2023-04-10T14:34:27.336Z,16.83
2023-04-10T14:37:00.175Z,14.77
2023-04-10T14:39:30.754Z,15.32
2023-04-10T14:42:02.231Z,16.67
2023-04-10T14:44:32.966Z,15.27
2023-04-10T14:47:06.393Z,17.45
2023-04-10T14:49:36.693Z,19.02
2023-04-10T14:52:09.621Z,16.75
2023-04-10T14:54:39.805Z,46.30
2023-04-10T14:57:10.041Z,29.38
2023-04-10T14:59:40.217Z,22.40
2023-04-10T15:02:10.542Z,15.68
2023-04-10T15:04:40.761Z,20.13
2023-04-10T15:07:16.684Z,19.60
2023-04-10T15:09:46.937Z,32.90
2023-04-10T15:12:17.221Z,18.48
2023-04-10T15:14:47.529Z,12.90
2023-04-10T15:17:17.878Z,17.85
2023-04-10T15:19:48.054Z,11.98
2023-04-10T15:22:20.890Z,13.07
2023-04-10T15:24:51.293Z,14.63
2023-04-10T15:27:25.440Z,14.85
2023-04-10T15:29:55.659Z,18.20
2023-04-10T15:32:26.402Z,11.25
2023-04-10T15:34:56.673Z,11.15
2023-04-10T15:37:29.585Z,12.07
2023-04-10T15:40:00.167Z,11.77
2023-04-10T15:42:31.008Z,22.88
2023-04-10T15:45:01.198Z,24.58
2023-04-10T15:47:31.514Z,22.65
2023-04-10T15:50:01.810Z,13.30
2023-04-10T15:52:35.043Z,12.18
2023-04-10T15:55:05.532Z,12.43
2023-04-10T15:57:36.259Z,13.20
2023-04-10T16:00:07.035Z,10.27
2023-04-10T16:02:37.421Z,11.00
2023-04-10T16:05:08.866Z,10.15
2023-04-10T16:07:43.985Z,7.45
2023-04-10T16:10:14.867Z,8.23
2023-04-10T16:12:45.159Z,11.55
2023-04-10T16:15:16.424Z,11.07
2023-04-10T16:17:46.833Z,39.53
2023-04-10T16:20:17.688Z,8.85
2023-04-10T16:22:50.493Z,13.73
2023-04-10T16:25:21.804Z,17.97
2023-04-10T16:27:53.533Z,64.15
2023-04-10T16:30:23.887Z,17.02
2023-04-10T16:32:54.716Z,16.27
2023-04-10T16:35:25.723Z,32.25
2023-04-10T16:37:58.705Z,22.73
2023-04-10T16:40:32.918Z,40.25
2023-04-10T16:43:03.401Z,18.85
2023-04-10T16:49:13.813Z,47.17
2023-04-10T16:51:50.373Z,18.23
2023-04-10T16:54:24.656Z,32.83
2023-04-10T17:00:24.005Z,19.85
2023-04-10T17:03:52.188Z,31.05
2023-04-10T17:18:35.716Z,18.30
2023-04-10T17:22:17.772Z,19.23
2023-04-10T17:25:05.831Z,11.90
2023-04-10T17:27:50.521Z,19.58
2023-04-10T17:30:44.612Z,13.75
2023-04-10T17:33:19.842Z,12.50
2023-04-10T17:36:27.906Z,15.68
2023-04-10T17:39:01.144Z,12.25
2023-04-10T17:41:47.650Z,11.50
2023-04-10T17:44:18.115Z,14.20
2023-04-10T17:46:48.603Z,16.73
2023-04-10T17:49:19.085Z,17.75
2023-04-10T17:51:53.201Z,40.72
2023-04-10T17:54:25.527Z,390.13
2023-04-10T17:56:58.950Z,111.43
2023-04-10T17:59:34.496Z,65.57
2023-04-10T18:02:04.745Z,66.43
2023-04-10T18:04:35.523Z,37.90
2023-04-10T18:07:09.114Z,27.17
2023-04-10T18:09:39.704Z,35.50
2023-04-10T18:12:11.012Z,61.50
2023-04-10T18:14:42.805Z,43.83
2023-04-10T18:17:12.999Z,27.08
2023-04-10T18:19:43.131Z,31.20
2023-04-10T18:22:15.968Z,29.42
2023-04-10T18:24:49.910Z,28.00
2023-04-10T18:27:20.135Z,31.50
2023-04-10T18:30:01.043Z,33.60
2023-04-10T18:32:31.416Z,33.33
2023-04-10T18:35:03.817Z,36.03
2023-04-10T18:37:36.825Z,40.78
2023-04-10T18:40:15.866Z,37.75
2023-04-10T18:42:49.267Z,45.90
2023-04-10T18:45:20.800Z,44.72
2023-04-10T18:47:53.343Z,41.33
2023-04-10T18:50:23.526Z,47.10
2023-04-10T18:52:56.304Z,68.55
2023-04-10T18:55:26.571Z,54.85
2023-04-10T18:57:56.931Z,86.25
2023-04-10T19:00:32.293Z,80.68
2023-04-10T19:03:07.256Z,104.32
2023-04-10T19:05:37.658Z,73.38
2023-04-10T19:08:14.481Z,53.83
2023-04-10T19:10:45.275Z,53.47
2023-04-10T19:13:16.070Z,60.30
2023-04-10T19:15:48.633Z,71.72
2023-04-10T19:18:18.993Z,81.00
2023-04-10T19:20:52.989Z,56.30
2023-04-10T19:23:29.346Z,165.90
2023-04-10T19:26:00.627Z,106.10
2023-04-10T19:28:33.110Z,75.53
2023-04-10T19:31:03.838Z,147.50
2023-04-10T19:33:34.463Z,82.93
2023-04-10T19:36:06.822Z,69.32
2023-04-10T19:38:41.222Z,55.22
2023-04-10T19:41:18.251Z,53.63
2023-04-10T19:43:49.391Z,61.03
2023-04-10T19:46:20.716Z,56.45
2023-04-10T19:48:52.273Z,57.85
2023-04-10T19:51:22.486Z,57.72
2023-04-10T19:53:56.049Z,59.88
2023-04-10T19:58:58.027Z,56.03
2023-04-10T20:01:28.755Z,67.45
2023-04-10T20:03:59.307Z,68.72
2023-04-10T20:06:30.010Z,57.50
2023-04-10T20:09:03.089Z,55.70
2023-04-10T20:11:33.595Z,67.47
2023-04-10T20:14:04.030Z,56.92
2023-04-10T20:16:34.622Z,58.97
2023-04-10T20:19:05.501Z,58.53
2023-04-10T20:21:36.767Z,60.03
2023-04-10T20:24:09.912Z,63.10
2023-04-10T20:26:40.288Z,55.78
2023-04-10T20:29:10.973Z,58.03
2023-04-10T20:31:41.499Z,52.38
2023-04-10T20:34:11.961Z,51.38
2023-04-10T20:36:42.299Z,51.13
2023-04-10T20:39:15.205Z,52.17
2023-04-10T20:41:45.497Z,57.37
2023-04-10T20:44:15.769Z,48.88
2023-04-10T20:46:50.430Z,53.10
2023-04-10T20:49:20.723Z,56.20
2023-04-10T20:51:50.958Z,51.88
2023-04-10T20:54:25.954Z,51.13
2023-04-10T20:56:57.243Z,52.83
2023-04-10T20:59:27.536Z,52.60
2023-04-10T21:01:58.445Z,64.95
2023-04-10T21:04:29.141Z,176.20
2023-04-10T21:06:59.719Z,136.52
2023-04-10T21:09:33.055Z,219.48
2023-04-10T21:12:03.319Z,283.02
2023-04-10T21:14:33.842Z,63.50
2023-04-10T21:17:04.177Z,164.10
2023-04-10T21:19:38.810Z,141.43
2023-04-10T21:22:10.491Z,75.13
2023-04-10T21:24:43.341Z,168.48
2023-04-10T21:27:13.683Z,70.05
2023-04-10T21:29:43.884Z,166.98
2023-04-10T21:32:14.168Z,115.35
2023-04-10T21:34:44.630Z,59.75
2023-04-10T21:37:14.814Z,68.90
2023-04-10T21:39:47.581Z,114.45
2023-04-10T21:42:17.730Z,91.85
2023-04-10T21:44:47.893Z,115.28
2023-04-10T21:47:18.024Z,91.22
2023-04-10T21:49:48.226Z,63.58
2023-04-10T21:52:18.512Z,115.85
2023-04-10T21:54:51.244Z,121.15
2023-04-10T21:57:21.621Z,178.75
2023-04-10T21:59:51.765Z,217.73
2023-04-10T22:02:22.614Z,160.63
2023-04-10T22:04:54.778Z,165.35
2023-04-10T22:07:25.302Z,141.55
2023-04-10T22:09:58.090Z,130.48
2023-04-10T22:12:28.286Z,137.13
2023-04-10T22:14:58.513Z,135.50
2023-04-10T22:17:28.753Z,83.03
2023-04-10T22:19:58.945Z,102.82
2023-04-10T22:22:29.179Z,92.40
2023-04-10T22:25:02.064Z,100.82
2023-04-10T22:27:32.346Z,100.57
2023-04-10T22:30:04.233Z,121.72
2023-04-10T22:32:35.088Z,150.18
2023-04-10T22:35:05.343Z,115.78
2023-04-10T22:37:35.778Z,116.95
2023-04-10T22:40:10.143Z,94.82
2023-04-10T22:42:40.397Z,98.60
2023-04-10T22:45:11.875Z,78.60
2023-04-10T22:47:42.103Z,87.07
2023-04-10T22:50:12.713Z,77.22
2023-04-10T22:52:42.954Z,66.20
2023-04-10T22:55:16.029Z,70.32
2023-04-10T22:57:50.444Z,70.53
2023-04-10T23:00:21.151Z,75.38
2023-04-10T23:02:51.462Z,73.13
2023-04-10T23:05:21.738Z,69.75
2023-04-10T23:07:51.969Z,75.10
2023-04-10T23:10:24.970Z,81.38
2023-04-10T23:12:55.120Z,87.30
2023-04-10T23:15:28.416Z,91.32
2023-04-10T23:17:59.240Z,83.78
2023-04-10T23:20:29.547Z,92.88
2023-04-10T23:22:59.760Z,84.45
2023-04-10T23:25:32.688Z,80.22
2023-04-10T23:28:03.731Z,94.93
2023-04-10T23:30:34.636Z,85.38
2023-04-10T23:33:05.026Z,110.63
2023-04-10T23:35:35.275Z,80.75
2023-04-10T23:38:05.638Z,71.82
2023-04-10T23:40:38.556Z,75.45
2023-04-10T23:43:08.897Z,77.27
2023-04-10T23:45:39.357Z,87.43
2023-04-10T23:48:10.908Z,83.22
2023-04-10T23:50:41.250Z,80.97
2023-04-10T23:53:12.811Z,91.18
2023-04-10T23:55:47.243Z,121.57
2023-04-10T23:58:17.473Z,125.38
